createdAt,value
2018-12-15T00:00:58.135Z,8.17
2018-12-15T00:03:28.170Z,8.27
2018-12-15T00:05:58.012Z,7.57
2018-12-15T00:08:27.946Z,8.50
2018-12-15T00:10:57.830Z,8.07
2018-12-15T00:13:27.809Z,7.80
2018-12-15T00:15:57.954Z,7.67
2018-12-15T00:18:27.741Z,7.70
2018-12-15T00:20:57.764Z,8.17
2018-12-15T00:23:27.554Z,8.67
2018-12-15T00:25:58.268Z,8.60
2018-12-15T00:28:28.141Z,8.73
2018-12-15T00:30:58.090Z,8.30
2018-12-15T00:33:27.962Z,8.10
2018-12-15T00:35:57.791Z,7.77
2018-12-15T00:38:27.615Z,8.73
2018-12-15T00:40:57.513Z,7.20
2018-12-15T00:43:27.477Z,8.17
2018-12-15T00:45:57.457Z,7.07
2018-12-15T00:48:27.805Z,7.90
2018-12-15T00:50:58.342Z,7.83
2018-12-15T00:53:28.214Z,7.90
2018-12-15T00:55:58.001Z,7.63
2018-12-15T00:58:27.918Z,7.43
2018-12-15T01:00:57.752Z,7.80
2018-12-15T01:03:27.416Z,7.33
2018-12-15T01:05:57.180Z,7.13
2018-12-15T01:08:26.993Z,7.07
2018-12-15T01:10:56.676Z,6.67
2018-12-15T01:13:26.405Z,6.77
2018-12-15T01:15:56.295Z,7.30
2018-12-15T01:18:26.190Z,7.40
2018-12-15T01:20:55.960Z,6.47
2018-12-15T01:23:25.831Z,6.47
2018-12-15T01:25:55.689Z,6.97
2018-12-15T01:28:25.484Z,5.90
2018-12-15T01:30:55.169Z,6.10
2018-12-15T01:33:24.877Z,5.70
2018-12-15T01:35:54.960Z,6.37
2018-12-15T01:38:24.750Z,5.80
2018-12-15T01:40:54.859Z,6.87
2018-12-15T01:43:24.844Z,6.63
2018-12-15T01:45:54.839Z,6.10
2018-12-15T01:48:24.604Z,6.53
2018-12-15T01:50:54.545Z,6.40
2018-12-15T01:53:24.196Z,5.83
2018-12-15T01:55:53.955Z,4.77
2018-12-15T01:58:23.781Z,6.17
2018-12-15T02:00:53.453Z,6.60
2018-12-15T02:03:23.152Z,5.70
2018-12-15T02:05:53.109Z,6.13
2018-12-15T02:08:22.881Z,5.77
2018-12-15T02:10:52.918Z,6.10
2018-12-15T02:13:23.249Z,6.10
2018-12-15T02:15:53.136Z,6.20
2018-12-15T02:18:22.908Z,5.90
2018-12-15T02:20:52.917Z,6.10
2018-12-15T02:23:22.673Z,6.50
2018-12-15T02:25:52.395Z,5.53
2018-12-15T02:28:22.816Z,6.23
2018-12-15T02:30:52.660Z,5.53
2018-12-15T02:33:22.506Z,5.97
2018-12-15T02:35:52.796Z,5.83
2018-12-15T02:38:22.569Z,6.17
2018-12-15T02:40:52.452Z,5.67
2018-12-15T02:43:22.304Z,6.13
2018-12-15T02:45:52.209Z,6.27
2018-12-15T02:48:21.967Z,6.57
2018-12-15T02:50:51.723Z,5.78
2018-12-15T02:53:21.685Z,6.10
2018-12-15T02:55:51.557Z,6.93
2018-12-15T02:58:21.480Z,6.40
2018-12-15T03:00:51.768Z,5.95
2018-12-15T03:03:21.538Z,6.83
2018-12-15T03:05:51.373Z,7.00
2018-12-15T03:08:21.273Z,7.30
2018-12-15T03:10:51.229Z,6.10
2018-12-15T03:13:20.941Z,6.28
2018-12-15T03:15:50.947Z,6.23
2018-12-15T03:18:20.710Z,6.62
2018-12-15T03:21:03.896Z,7.08
2018-12-15T03:23:35.546Z,6.60
2018-12-15T03:26:05.634Z,7.30
2018-12-15T03:28:35.299Z,7.42
2018-12-15T03:31:05.053Z,7.45
2018-12-15T03:33:35.203Z,7.28
2018-12-15T03:36:04.906Z,7.60
2018-12-15T03:38:34.780Z,6.97
2018-12-15T03:41:04.780Z,6.70
2018-12-15T03:43:34.464Z,7.20
2018-12-15T03:46:04.359Z,7.40
2018-12-15T03:48:34.143Z,7.33
2018-12-15T03:51:03.901Z,7.17
2018-12-15T03:53:33.657Z,7.43
2018-12-15T03:56:03.545Z,7.07
2018-12-15T03:58:33.381Z,7.33
2018-12-15T04:01:03.211Z,7.33
2018-12-15T04:03:32.862Z,6.87
2018-12-15T04:06:03.169Z,8.00
2018-12-15T04:08:32.928Z,7.47
2018-12-15T04:11:04.345Z,6.93
2018-12-15T04:13:34.036Z,7.30
2018-12-15T04:16:04.345Z,7.63
2018-12-15T04:18:34.120Z,6.80
2018-12-15T04:21:05.292Z,7.77
2018-12-15T04:23:35.664Z,7.17
2018-12-15T04:26:05.485Z,7.87
2018-12-15T04:28:35.227Z,8.03
2018-12-15T04:31:05.170Z,8.67
2018-12-15T04:33:34.915Z,7.93
2018-12-15T04:36:16.088Z,8.63
2018-12-15T04:38:46.003Z,9.03
2018-12-15T04:41:15.860Z,9.13
2018-12-15T04:43:45.589Z,8.67
2018-12-15T04:46:15.534Z,9.17
2018-12-15T04:48:45.333Z,9.50
2018-12-15T04:51:15.220Z,8.77
2018-12-15T04:53:44.941Z,9.83
2018-12-15T04:56:14.774Z,8.90
2018-12-15T04:58:44.402Z,9.93
2018-12-15T05:01:14.127Z,9.60
2018-12-15T05:03:43.968Z,9.25
2018-12-15T05:06:13.779Z,9.90
2018-12-15T05:08:43.802Z,9.33
2018-12-15T05:11:13.649Z,10.23
2018-12-15T05:13:43.596Z,8.67
2018-12-15T05:16:13.440Z,10.30
2018-12-15T05:18:43.317Z,9.97
2018-12-15T05:21:13.095Z,8.03
2018-12-15T05:23:43.058Z,8.30
2018-12-15T05:26:12.800Z,8.75
2018-12-15T05:28:42.532Z,9.40
2018-12-15T05:31:12.200Z,9.43
2018-12-15T05:33:41.961Z,8.73
2018-12-15T05:36:11.645Z,9.07
2018-12-15T05:38:41.484Z,9.90
2018-12-15T05:41:11.176Z,9.70
2018-12-15T05:43:41.052Z,9.73
2018-12-15T05:46:10.921Z,9.80
2018-12-15T05:48:40.731Z,8.10
2018-12-15T05:51:11.132Z,9.47
2018-12-15T05:53:41.121Z,8.67
2018-12-15T05:56:11.129Z,7.47
2018-12-15T05:58:40.859Z,8.67
2018-12-15T06:01:10.611Z,8.70
2018-12-15T06:03:40.325Z,9.70
2018-12-15T06:06:10.289Z,8.03
2018-12-15T06:08:40.070Z,9.13
2018-12-15T06:11:09.906Z,9.17
2018-12-15T06:13:39.827Z,9.27
2018-12-15T06:16:09.592Z,9.03
2018-12-15T06:18:39.917Z,8.20
2018-12-15T06:21:09.612Z,7.85
2018-12-15T06:23:39.345Z,7.83
2018-12-15T06:26:09.260Z,8.45
2018-12-15T06:28:39.188Z,8.03
2018-12-15T06:31:09.031Z,7.45
2018-12-15T06:33:39.109Z,7.90
2018-12-15T06:36:08.884Z,7.87
2018-12-15T06:38:38.625Z,8.53
2018-12-15T06:41:08.338Z,8.53
2018-12-15T06:43:38.958Z,9.00
2018-12-15T06:46:09.186Z,8.47
2018-12-15T06:48:39.192Z,9.08
2018-12-15T06:51:09.025Z,8.73
2018-12-15T06:53:38.667Z,8.00
2018-12-15T06:56:08.484Z,8.38
2018-12-15T06:58:38.713Z,8.55
2018-12-15T07:01:08.457Z,8.87
2018-12-15T07:03:38.191Z,8.95
2018-12-15T07:06:08.871Z,9.17
2018-12-15T07:08:38.667Z,8.98
2018-12-15T07:11:08.782Z,9.10
2018-12-15T07:13:39.270Z,10.10
2018-12-15T07:16:09.245Z,8.63
2018-12-15T07:18:44.623Z,8.43
2018-12-15T07:21:10.990Z,8.28
2018-12-15T07:23:40.738Z,8.98
2018-12-15T07:26:10.638Z,9.23
2018-12-15T07:28:40.623Z,9.30
2018-12-15T07:31:10.518Z,9.83
2018-12-15T07:33:40.445Z,9.50
2018-12-15T07:36:10.270Z,8.90
2018-12-15T07:38:41.097Z,9.20
2018-12-15T07:41:10.991Z,9.73
2018-12-15T07:43:41.512Z,9.10
2018-12-15T07:46:11.699Z,8.63
2018-12-15T07:48:42.352Z,8.23
2018-12-15T07:51:13.802Z,9.23
2018-12-15T07:53:43.567Z,10.60
2018-12-15T07:56:13.817Z,9.20
2018-12-15T07:58:43.705Z,10.70
2018-12-15T08:01:13.404Z,9.58
2018-12-15T08:03:44.083Z,10.03
2018-12-15T08:06:14.459Z,9.13
2018-12-15T08:08:45.032Z,9.70
2018-12-15T08:11:19.827Z,8.80
2018-12-15T08:13:51.694Z,8.50
2018-12-15T08:16:21.696Z,9.20
2018-12-15T08:18:57.900Z,9.00
2018-12-15T08:21:23.304Z,8.70
2018-12-15T08:23:53.149Z,9.17
2018-12-15T08:26:22.870Z,8.65
2018-12-15T08:28:52.883Z,9.03
2018-12-15T08:31:22.625Z,9.13
2018-12-15T08:33:52.646Z,10.40
2018-12-15T08:36:22.458Z,10.38
2018-12-15T08:38:52.507Z,9.73
2018-12-15T08:41:22.294Z,9.83
2018-12-15T08:43:52.148Z,10.20
2018-12-15T08:46:21.914Z,9.87
2018-12-15T08:48:51.677Z,9.47
2018-12-15T08:51:22.373Z,9.67
2018-12-15T08:53:52.186Z,9.17
2018-12-15T08:56:21.903Z,9.43
2018-12-15T08:58:51.851Z,10.23
2018-12-15T09:01:21.709Z,9.90
2018-12-15T09:03:51.626Z,9.90
2018-12-15T09:06:21.318Z,10.00
2018-12-15T09:08:51.193Z,10.55
2018-12-15T09:11:21.049Z,9.60
2018-12-15T09:13:50.778Z,10.67
2018-12-15T09:16:26.214Z,10.50
2018-12-15T09:18:52.248Z,9.68
2018-12-15T09:21:21.984Z,10.63
2018-12-15T09:23:52.624Z,9.80
2018-12-15T09:26:22.501Z,11.33
2018-12-15T09:28:52.224Z,11.07
2018-12-15T09:31:22.108Z,10.83
2018-12-15T09:33:52.005Z,11.13
2018-12-15T09:36:21.849Z,10.73
2018-12-15T09:38:51.767Z,10.70
2018-12-15T09:41:21.600Z,11.20
2018-12-15T09:43:51.507Z,11.00
2018-12-15T09:46:21.239Z,11.80
2018-12-15T09:48:51.176Z,11.20
2018-12-15T09:51:21.193Z,12.50
2018-12-15T09:53:51.102Z,12.82
2018-12-15T09:56:20.855Z,11.48
2018-12-15T09:58:50.698Z,11.45
2018-12-15T10:01:20.844Z,11.10
2018-12-15T10:03:51.244Z,11.53
2018-12-15T10:06:21.089Z,11.73
2018-12-15T10:08:50.874Z,11.50
2018-12-15T10:11:20.756Z,11.43
2018-12-15T10:13:50.688Z,11.20
2018-12-15T10:16:20.378Z,11.73
2018-12-15T10:18:50.169Z,11.47
2018-12-15T10:21:20.015Z,12.33
2018-12-15T10:23:49.939Z,10.93
2018-12-15T10:26:19.815Z,10.90
2018-12-15T10:28:49.793Z,11.23
2018-12-15T10:31:24.619Z,11.37
2018-12-15T10:33:54.685Z,10.15
2018-12-15T10:36:24.442Z,11.00
2018-12-15T10:38:54.476Z,10.97
2018-12-15T10:41:24.442Z,10.37
2018-12-15T10:43:54.482Z,11.60
2018-12-15T10:46:24.363Z,10.63
2018-12-15T10:48:54.220Z,11.20
2018-12-15T10:51:24.073Z,11.57
2018-12-15T10:53:54.135Z,10.77
2018-12-15T10:56:24.137Z,10.23
2018-12-15T10:58:53.873Z,10.30
2018-12-15T11:01:24.116Z,8.70
2018-12-15T11:03:53.903Z,10.03
2018-12-15T11:06:23.791Z,9.93
2018-12-15T11:08:53.564Z,8.77
2018-12-15T11:11:23.350Z,9.90
2018-12-15T11:13:53.725Z,10.00
2018-12-15T11:16:23.513Z,10.00
2018-12-15T11:18:53.425Z,9.47
2018-12-15T11:21:23.250Z,9.20
2018-12-15T11:23:53.009Z,8.80
2018-12-15T11:26:22.776Z,9.53
2018-12-15T11:28:52.617Z,9.53
2018-12-15T11:31:23.023Z,9.45
2018-12-15T11:33:53.029Z,9.57
2018-12-15T11:36:22.785Z,10.40
2018-12-15T11:38:52.660Z,9.63
2018-12-15T11:41:22.528Z,9.83
2018-12-15T11:43:52.317Z,10.23
2018-12-15T11:46:22.426Z,11.00
2018-12-15T11:48:52.140Z,10.10
2018-12-15T11:51:21.956Z,11.10
2018-12-15T11:53:51.672Z,10.30
2018-12-15T11:56:21.568Z,10.40
2018-12-15T11:58:51.666Z,10.03
2018-12-15T12:01:21.831Z,11.23
2018-12-15T12:03:51.775Z,9.63
2018-12-15T12:06:21.681Z,9.73
2018-12-15T12:08:51.455Z,11.40
2018-12-15T12:11:21.281Z,10.97
2018-12-15T12:13:51.152Z,11.07
2018-12-15T12:16:21.029Z,11.03
2018-12-15T12:18:50.928Z,11.00
2018-12-15T12:21:20.802Z,10.23
2018-12-15T12:23:50.753Z,10.87
2018-12-15T12:26:20.469Z,10.45
2018-12-15T12:28:50.196Z,10.37
2018-12-15T12:31:20.103Z,10.87
2018-12-15T12:33:50.112Z,10.57
2018-12-15T12:36:19.986Z,9.03
2018-12-15T12:38:49.685Z,9.85
2018-12-15T12:41:19.549Z,10.07
2018-12-15T12:43:49.386Z,9.43
2018-12-15T12:46:19.060Z,10.77
2018-12-15T12:48:49.108Z,10.80
2018-12-15T12:51:18.909Z,10.03
2018-12-15T12:53:48.706Z,11.00
2018-12-15T12:56:18.537Z,10.40
2018-12-15T12:58:48.366Z,10.80
2018-12-15T13:01:18.294Z,9.47
2018-12-15T13:03:48.269Z,10.07
2018-12-15T13:06:17.989Z,10.40
2018-12-15T13:08:47.839Z,10.13
2018-12-15T13:11:17.608Z,9.67
2018-12-15T13:13:47.489Z,8.90
2018-12-15T13:16:17.589Z,9.67
2018-12-15T13:18:47.389Z,9.93
2018-12-15T13:21:17.226Z,9.47
2018-12-15T13:23:47.008Z,9.63
2018-12-15T13:26:17.081Z,8.93
2018-12-15T13:28:46.812Z,8.77
2018-12-15T13:31:16.711Z,9.07
2018-12-15T13:33:46.548Z,9.27
2018-12-15T13:36:19.734Z,8.50
2018-12-15T13:38:49.747Z,9.30
2018-12-15T13:41:19.485Z,8.80
2018-12-15T13:43:49.604Z,9.03
2018-12-15T13:46:19.379Z,8.30
2018-12-15T13:48:49.118Z,9.03
2018-12-15T13:51:19.157Z,9.13
2018-12-15T13:53:48.957Z,9.60
2018-12-15T13:56:19.398Z,9.20
2018-12-15T13:58:49.182Z,9.43
2018-12-15T14:01:19.039Z,9.10
2018-12-15T14:03:49.065Z,9.33
2018-12-15T14:06:18.949Z,9.27
2018-12-15T14:08:48.719Z,9.40
2018-12-15T14:11:18.571Z,8.60
2018-12-15T14:13:48.413Z,9.47
2018-12-15T14:16:18.218Z,9.70
2018-12-15T14:18:48.062Z,9.53
2018-12-15T14:21:17.922Z,9.67
2018-12-15T14:23:47.888Z,8.58
2018-12-15T14:26:17.864Z,9.97
2018-12-15T14:28:47.746Z,8.97
2018-12-15T14:31:17.777Z,9.53
2018-12-15T14:33:47.768Z,11.03
2018-12-15T14:36:17.583Z,10.40
2018-12-15T14:38:47.500Z,9.27
2018-12-15T14:41:17.478Z,9.23
2018-12-15T14:43:47.283Z,9.00
2018-12-15T14:46:17.069Z,9.27
2018-12-15T14:48:46.896Z,9.37
2018-12-15T14:51:17.875Z,9.33
2018-12-15T14:53:47.548Z,10.17
2018-12-15T14:56:17.844Z,9.57
2018-12-15T14:58:48.240Z,10.13
2018-12-15T15:01:17.971Z,9.37
2018-12-15T15:03:47.725Z,9.57
2018-12-15T15:06:17.541Z,8.90
2018-12-15T15:08:47.396Z,9.47
2018-12-15T15:11:17.684Z,10.17
2018-12-15T15:13:47.628Z,10.13
2018-12-15T15:16:18.004Z,9.27
2018-12-15T15:18:47.890Z,9.35
2018-12-15T15:21:17.649Z,8.87
2018-12-15T15:23:48.554Z,9.07
2018-12-15T15:26:18.381Z,8.33
2018-12-15T15:28:48.546Z,9.13
2018-12-15T15:31:18.422Z,9.60
2018-12-15T15:33:48.093Z,9.97
2018-12-15T15:36:17.927Z,10.80
2018-12-15T15:38:47.937Z,9.10
2018-12-15T15:41:17.656Z,10.38
2018-12-15T15:43:47.489Z,9.37
2018-12-15T15:46:17.452Z,9.73
2018-12-15T15:48:47.430Z,9.28
2018-12-15T15:51:17.247Z,9.67
2018-12-15T15:53:47.131Z,10.10
2018-12-15T15:56:16.903Z,9.33
2018-12-15T15:58:46.923Z,9.37
2018-12-15T16:01:16.893Z,9.25
2018-12-15T16:03:46.806Z,9.88
2018-12-15T16:06:16.771Z,9.10
2018-12-15T16:08:46.614Z,9.63
2018-12-15T16:11:16.607Z,9.48
2018-12-15T16:13:46.609Z,10.45
2018-12-15T16:16:32.129Z,9.45
2018-12-15T16:19:02.047Z,9.78
2018-12-15T16:21:31.837Z,9.63
2018-12-15T16:24:02.142Z,10.32
2018-12-15T16:26:31.901Z,10.10
2018-12-15T16:29:01.830Z,10.60
2018-12-15T16:31:31.754Z,10.60
2018-12-15T16:34:02.731Z,9.40
2018-12-15T16:36:32.783Z,9.48
2018-12-15T16:39:02.906Z,10.15
2018-12-15T16:41:32.904Z,10.58
2018-12-15T16:44:03.811Z,10.45
2018-12-15T16:46:33.705Z,9.93
2018-12-15T16:49:03.536Z,10.18
2018-12-15T16:51:33.518Z,9.83
2018-12-15T16:54:03.784Z,10.90
2018-12-15T16:56:33.658Z,10.43
2018-12-15T16:59:03.671Z,9.48
2018-12-15T17:01:33.591Z,9.05
2018-12-15T17:04:04.026Z,9.95
2018-12-15T17:06:33.758Z,9.90
2018-12-15T17:09:05.156Z,10.15
2018-12-15T17:11:35.010Z,10.03
2018-12-15T17:14:04.930Z,9.27
2018-12-15T17:16:35.006Z,10.53
2018-12-15T17:19:04.871Z,9.58
2018-12-15T17:21:35.647Z,9.98
2018-12-15T17:24:06.052Z,9.83
2018-12-15T17:26:35.757Z,10.90
2018-12-15T17:29:05.789Z,10.53
2018-12-15T17:31:35.615Z,10.63
2018-12-15T17:34:05.419Z,10.23
2018-12-15T17:36:35.302Z,10.23
2018-12-15T17:39:07.856Z,10.38
2018-12-15T17:41:37.583Z,10.18
2018-12-15T17:44:07.435Z,10.85
2018-12-15T17:46:37.511Z,10.98
2018-12-15T17:49:07.663Z,10.88
2018-12-15T17:51:39.126Z,10.40
2018-12-15T17:54:09.026Z,10.48
2018-12-15T17:56:38.933Z,10.35
2018-12-15T17:59:08.705Z,10.05
2018-12-15T18:01:38.566Z,9.33
2018-12-15T18:04:08.512Z,10.23
2018-12-15T18:06:38.535Z,9.90
2018-12-15T18:09:09.215Z,9.98
2018-12-15T18:11:38.987Z,10.32
2018-12-15T18:14:08.881Z,10.40
2018-12-15T18:16:38.764Z,10.72
2018-12-15T18:19:08.806Z,10.38
2018-12-15T18:21:38.576Z,10.25
2018-12-15T18:24:08.965Z,9.88
2018-12-15T18:26:39.112Z,10.40
2018-12-15T18:29:09.249Z,10.05
2018-12-15T18:31:39.952Z,10.70
2018-12-15T18:34:10.069Z,10.20
2018-12-15T18:36:39.899Z,10.80
2018-12-15T18:39:09.993Z,10.68
2018-12-15T18:41:39.835Z,10.13
2018-12-15T18:44:09.675Z,10.18
2018-12-15T18:46:39.378Z,11.33
2018-12-15T18:49:10.073Z,10.75
2018-12-15T18:51:40.509Z,11.70
2018-12-15T18:54:10.376Z,10.65
2018-12-15T18:56:41.334Z,10.85
2018-12-15T18:59:11.390Z,10.15
2018-12-15T19:01:41.310Z,11.45
2018-12-15T19:04:11.195Z,12.43
2018-12-15T19:06:40.925Z,11.05
2018-12-15T19:09:11.041Z,11.65
2018-12-15T19:11:40.876Z,10.60
2018-12-15T19:14:10.658Z,11.83
2018-12-15T19:16:40.516Z,10.75
2018-12-15T19:19:10.297Z,10.85
2018-12-15T19:21:40.215Z,11.00
2018-12-15T19:24:10.066Z,10.45
2018-12-15T19:26:39.978Z,11.60
2018-12-15T19:29:09.914Z,11.05
2018-12-15T19:31:40.502Z,11.63
2018-12-15T19:34:10.367Z,11.28
2018-12-15T19:36:40.187Z,11.00
2018-12-15T19:39:10.888Z,10.20
2018-12-15T19:41:41.679Z,11.40
2018-12-15T19:44:11.470Z,12.00
2018-12-15T19:46:41.496Z,11.57
2018-12-15T19:49:11.258Z,10.13
2018-12-15T19:51:41.021Z,11.33
2018-12-15T19:54:10.921Z,12.28
2018-12-15T19:56:40.846Z,12.25
2018-12-15T19:59:14.784Z,12.00
2018-12-15T20:01:46.058Z,10.80
2018-12-15T20:04:15.728Z,11.38
2018-12-15T20:06:45.763Z,11.70
2018-12-15T20:09:15.496Z,10.75
2018-12-15T20:11:46.013Z,11.78
2018-12-15T20:14:15.931Z,11.35
2018-12-15T20:16:45.697Z,11.45
2018-12-15T20:19:15.480Z,11.85
2018-12-15T20:21:45.244Z,11.78
2018-12-15T20:24:15.200Z,12.35
2018-12-15T20:26:45.260Z,11.95
2018-12-15T20:29:15.227Z,12.20
2018-12-15T20:31:45.269Z,11.80
2018-12-15T20:34:15.650Z,11.85
2018-12-15T20:36:45.608Z,11.70
2018-12-15T20:39:16.286Z,11.55
2018-12-15T20:41:46.123Z,12.23
2018-12-15T20:44:16.073Z,11.50
2018-12-15T20:46:45.982Z,11.08
2018-12-15T20:49:15.921Z,12.45
2018-12-15T20:51:45.833Z,12.47
2018-12-15T20:54:20.925Z,12.28
2018-12-15T20:56:51.732Z,11.63
2018-12-15T20:59:21.533Z,12.07
2018-12-15T21:01:52.689Z,12.28
2018-12-15T21:04:22.505Z,11.83
2018-12-15T21:06:52.480Z,12.18
2018-12-15T21:09:22.382Z,12.45
2018-12-15T21:11:52.459Z,12.30
2018-12-15T21:14:23.302Z,11.97
2018-12-15T21:16:53.891Z,11.75
2018-12-15T21:19:23.636Z,12.18
2018-12-15T21:21:53.666Z,11.28
2018-12-15T21:24:24.261Z,12.07
2018-12-15T21:26:55.140Z,11.85
2018-12-15T21:29:26.170Z,12.25
2018-12-15T21:31:56.855Z,12.35
2018-12-15T21:34:27.031Z,12.63
2018-12-15T21:36:56.806Z,11.90
2018-12-15T21:39:26.677Z,11.80
2018-12-15T21:41:56.571Z,11.97
2018-12-15T21:44:27.326Z,12.30
2018-12-15T21:46:57.610Z,11.30
2018-12-15T21:49:28.148Z,11.65
2018-12-15T21:51:58.237Z,12.18
2018-12-15T21:54:28.112Z,10.85
2018-12-15T21:56:58.502Z,11.60
2018-12-15T21:59:28.305Z,11.18
2018-12-15T22:01:58.433Z,12.13
2018-12-15T22:04:28.194Z,11.03
2018-12-15T22:06:58.161Z,11.88
2018-12-15T22:09:28.925Z,10.80
2018-12-15T22:11:58.849Z,11.70
2018-12-15T22:14:28.769Z,11.50
2018-12-15T22:16:58.688Z,11.60
2018-12-15T22:19:28.561Z,11.18
2018-12-15T22:22:02.972Z,11.15
2018-12-15T22:24:31.690Z,11.25
2018-12-15T22:27:01.417Z,10.63
2018-12-15T22:29:31.271Z,11.90
2018-12-15T22:32:01.945Z,11.80
2018-12-15T22:34:31.905Z,10.68
2018-12-15T22:37:01.728Z,11.85
2018-12-15T22:39:31.540Z,10.63
2018-12-15T22:42:01.429Z,10.38
2018-12-15T22:44:31.349Z,9.88
2018-12-15T22:47:02.100Z,11.40
2018-12-15T22:49:31.898Z,10.82
2018-12-15T22:52:01.750Z,11.10
2018-12-15T22:54:31.580Z,11.60
2018-12-15T22:57:01.518Z,11.20
2018-12-15T22:59:31.394Z,11.48
2018-12-15T23:02:02.839Z,10.72
2018-12-15T23:04:32.723Z,10.72
2018-12-15T23:07:02.601Z,10.63
2018-12-15T23:09:33.192Z,10.28
2018-12-15T23:12:06.348Z,10.13
2018-12-15T23:14:36.430Z,10.43
2018-12-15T23:17:06.260Z,10.03
2018-12-15T23:19:36.030Z,10.05
2018-12-15T23:22:05.849Z,10.65
2018-12-15T23:24:35.673Z,10.32
2018-12-15T23:27:05.600Z,10.90
2018-12-15T23:29:35.517Z,9.80
2018-12-15T23:32:05.484Z,10.70
2018-12-15T23:34:35.965Z,11.30
2018-12-15T23:37:06.020Z,10.88
2018-12-15T23:39:35.805Z,11.22
2018-12-15T23:42:05.772Z,10.05
2018-12-15T23:44:35.545Z,10.48
2018-12-15T23:47:05.602Z,10.40
2018-12-15T23:49:35.582Z,11.57
2018-12-15T23:52:05.347Z,10.28
2018-12-15T23:54:35.435Z,11.00
2018-12-15T23:57:05.252Z,11.33
2018-12-15T23:59:35.268Z,11.15
